Time;durP1;ratioP1;P1;durP2;ratioP2;P2;SDS_P1;SDS_P2;PMS_P1;PMS_P2;Temp;Humidity;BMP_temperature;BMP_pressure;BME280_temperature;BME280_humidity;BME280_pressure;Samples;Min_cycle;Max_cycle;Signal;HPM_P1;HPM_P2
2021/05/07 00:00:33;;;;;;;;;;;;;;;;;;3563730;40;19983;-67
2021/05/07 00:02:59;;;;;;;;;;;;;;;;;;3568356;40;19952;-67
2021/05/07 00:05:25;;;;;;;;;;;;;;;;;;3573331;40;19937;-67
2021/05/07 00:07:51;;;;;;;;;;;;;;;;;;3564958;40;19941;-66
2021/05/07 00:10:17;;;;;;;;;;;;;;;;;;3574722;40;20014;-67
2021/05/07 00:12:44;;;;;;;;;;;;;;;;;;3570264;40;19929;-67
2021/05/07 00:15:10;;;;;;;;;;;;;;;;;;3577326;40;19929;-67
2021/05/07 00:17:36;;;;;;;;;;;;;;;;;;3575684;40;20023;-67
2021/05/07 00:20:01;;;;;;;;;;;;;;;;;;3573134;40;19944;-67
2021/05/07 00:22:27;;;;;;;;;;;;;;;;;;3580183;40;19936;-67
2021/05/07 00:24:54;;;;;;;;;;;;;;;;;;3570505;40;19937;-67
2021/05/07 00:27:20;;;;;;;;;;;;;;;;;;3570352;40;19929;-68
2021/05/07 00:29:46;;;;;;;;;;;;;;;;;;3576735;40;19955;-67
2021/05/07 00:32:12;;;;;;;;;;;;;;;;;;3570496;40;19929;-67
2021/05/07 00:34:38;;;;;;;;;;;;;;;;;;3570018;40;20172;-67
2021/05/07 00:37:04;;;;;;;;;;;;;;;;;;3573137;40;19935;-68
2021/05/07 00:39:30;;;;;;;;;;;;;;;;;;3571475;40;19933;-67
2021/05/07 00:42:02;;;;;;;;;;;;;;;;;;3576235;40;19937;-67
2021/05/07 00:44:28;;;;;;;;;;;;;;;;;;3570151;40;20352;-67
2021/05/07 00:46:54;;;;;;;;;;;;;;;;;;3570044;40;19941;-67
2021/05/07 00:49:20;;;;;;;;;;;;;;;;;;3570075;40;19929;-67
2021/05/07 00:51:46;;;;;;;;;;;;;;;;;;3573069;40;19955;-67
2021/05/07 00:54:12;;;;;;;;;;;;;;;;;;3570441;40;19936;-67
2021/05/07 00:56:38;;;;;;;;;;;;;;;;;;3569864;40;19940;-67
2021/05/07 00:59:03;;;;;;;;;;;;;;;;;;3558391;40;19977;-67
2021/05/07 01:01:31;;;;;;;;;;;;;;;;;;3570821;40;20031;-68
2021/05/07 01:06:25;;;;;;;;;;;;;;;;;;3558992;40;20400;-70
2021/05/07 01:08:51;;;;;;;;;;;;;;;;;;3554663;40;19929;-70
2021/05/07 01:11:17;;;;;;;;;;;;;;;;;;3567295;40;19933;-69
2021/05/07 01:13:43;;;;;;;;;;;;;;;;;;3559760;40;19945;-70
2021/05/07 01:16:09;;;;;;;;;;;;;;;;;;3560339;40;19956;-70
2021/05/07 01:18:35;;;;;;;;;;;;;;;;;;3560278;40;19930;-69
2021/05/07 01:21:01;;;;;;;;;;;;;;;;;;3559674;40;20049;-69
2021/05/07 01:23:27;;;;;;;;;;;;;;;;;;3560285;40;19936;-69
2021/05/07 01:25:53;;;;;;;;;;;;;;;;;;3560110;40;20307;-69
2021/05/07 01:28:19;;;;;;;;;;;;;;;;;;3560288;40;20261;-69
2021/05/07 01:30:45;;;;;;;;;;;;;;;;;;3560187;40;19949;-69
2021/05/07 01:33:13;;;;;;;;;;;;;;;;;;3557129;40;19936;-70
2021/05/07 01:35:39;;;;;;;;;;;;;;;;;;3559302;40;19929;-70
2021/05/07 01:38:05;;;;;;;;;;;;;;;;;;3559538;40;19929;-69
2021/05/07 01:40:31;;;;;;;;;;;;;;;;;;3550889;40;20202;-69
2021/05/07 01:42:57;;;;;;;;;;;;;;;;;;3566911;40;19941;-70
2021/05/07 01:45:22;;;;;;;;;;;;;;;;;;3560205;40;19930;-70
2021/05/07 01:47:48;;;;;;;;;;;;;;;;;;3553142;40;19929;-69
2021/05/07 01:50:14;;;;;;;;;;;;;;;;;;3557791;40;20202;-69
2021/05/07 01:52:40;;;;;;;;;;;;;;;;;;3561028;40;19930;-69
2021/05/07 01:55:06;;;;;;;;;;;;;;;;;;3566985;40;19929;-70
2021/05/07 01:57:32;;;;;;;;;;;;;;;;;;3554587;40;19933;-70
2021/05/07 01:59:58;;;;;;;;;;;;;;;;;;3553353;40;19941;-69
2021/05/07 02:02:24;;;;;;;;;;;;;;;;;;3555634;40;19930;-69
2021/05/07 02:04:50;;;;;;;;;;;;;;;;;;3556257;40;20317;-70
2021/05/07 02:07:16;;;;;;;;;;;;;;;;;;3554514;40;19933;-69
2021/05/07 02:09:42;;;;;;;;;;;;;;;;;;3561065;40;19925;-70
2021/05/07 02:12:07;;;;;;;;;;;;;;;;;;3559118;40;20286;-70
2021/05/07 02:14:34;;;;;;;;;;;;;;;;;;3564866;40;19944;-70
2021/05/07 02:17:01;;;;;;;;;;;;;;;;;;3576800;40;20286;-70
2021/05/07 02:19:27;;;;;;;;;;;;;;;;;;3569890;40;19937;-70
2021/05/07 02:21:54;;;;;;;;;;;;;;;;;;3576722;40;19955;-70
2021/05/07 02:24:20;;;;;;;;;;;;;;;;;;3572858;40;19929;-70
2021/05/07 02:26:45;;;;;;;;;;;;;;;;;;3569788;40;19955;-70
2021/05/07 02:29:11;;;;;;;;;;;;;;;;;;3560435;40;19933;-70
2021/05/07 02:31:37;;;;;;;;;;;;;;;;;;3571014;40;20278;-70
2021/05/07 02:34:03;;;;;;;;;;;;;;;;;;3572159;40;20198;-70
2021/05/07 02:36:29;;;;;;;;;;;;;;;;;;3569529;40;19933;-70
2021/05/07 02:38:55;;;;;;;;;;;;;;;;;;3560428;40;19929;-70
2021/05/07 02:41:21;;;;;;;;;;;;;;;;;;3569957;40;19959;-69
2021/05/07 02:43:47;;;;;;;;;;;;;;;;;;3569582;40;19929;-70
2021/05/07 02:46:15;;;;;;;;;;;;;;;;;;3570023;40;19941;-68
2021/05/07 02:48:40;;;;;;;;;;;;;;;;;;3575655;40;19937;-70
2021/05/07 02:51:06;;;;;;;;;;;;;;;;;;3557110;40;20190;-69
2021/05/07 02:53:32;;;;;;;;;;;;;;;;;;3570134;40;20289;-70
2021/05/07 02:55:58;;;;;;;;;;;;;;;;;;3570808;40;20226;-69
2021/05/07 02:58:30;;;;;;;;;;;;;;;;;;3564098;40;20275;-67
2021/05/07 03:00:56;;;;;;;;;;;;;;;;;;3574771;40;19936;-67
2021/05/07 03:03:22;;;;;;;;;;;;;;;;;;3569221;40;19929;-68
2021/05/07 03:05:48;;;;;;;;;;;;;;;;;;3572316;40;19949;-68
2021/05/07 03:08:14;;;;;;;;;;;;;;;;;;3569458;40;19929;-68
2021/05/07 03:10:40;;;;;;;;;;;;;;;;;;3569183;40;20187;-68
2021/05/07 03:13:06;;;;;;;;;;;;;;;;;;3574315;40;19924;-68
2021/05/07 03:15:32;;;;;;;;;;;;;;;;;;3571070;40;19933;-68
2021/05/07 03:17:58;;;;;;;;;;;;;;;;;;3574854;40;19929;-67
2021/05/07 03:20:24;;;;;;;;;;;;;;;;;;3571672;40;20266;-68
2021/05/07 03:22:49;;;;;;;;;;;;;;;;;;3573080;40;19937;-68
2021/05/07 03:25:15;;;;;;;;;;;;;;;;;;3571089;40;20015;-68
2021/05/07 03:27:41;;;;;;;;;;;;;;;;;;3561864;40;19930;-68
2021/05/07 03:30:07;;;;;;;;;;;;;;;;;;3564306;40;19929;-68
2021/05/07 03:32:33;;;;;;;;;;;;;;;;;;3571189;40;19940;-68
2021/05/07 03:34:59;;;;;;;;;;;;;;;;;;3578071;40;19929;-68
2021/05/07 03:37:25;;;;;;;;;;;;;;;;;;3574184;40;20023;-68
2021/05/07 03:39:51;;;;;;;;;;;;;;;;;;3561216;40;19929;-68
2021/05/07 03:42:17;;;;;;;;;;;;;;;;;;3570902;40;19929;-68
2021/05/07 03:44:43;;;;;;;;;;;;;;;;;;3563302;40;20006;-68
2021/05/07 03:47:09;;;;;;;;;;;;;;;;;;3567700;40;20248;-68
2021/05/07 03:49:35;;;;;;;;;;;;;;;;;;3566579;40;20298;-68
2021/05/07 03:52:01;;;;;;;;;;;;;;;;;;3561885;40;20164;-68
2021/05/07 03:54:27;;;;;;;;;;;;;;;;;;3573976;40;20014;-67
2021/05/07 03:56:53;;;;;;;;;;;;;;;;;;3570960;40;20170;-69
2021/05/07 03:59:19;;;;;;;;;;;;;;;;;;3571012;40;19941;-68
2021/05/07 04:01:45;;;;;;;;;;;;;;;;;;3577879;40;19941;-69
2021/05/07 04:04:11;;;;;;;;;;;;;;;;;;3567426;40;19925;-68
2021/05/07 04:06:37;;;;;;;;;;;;;;;;;;3571016;40;19934;-68
2021/05/07 04:11:51;;;;;;;;;;;;;;;;;;3570700;40;20194;-68
2021/05/07 04:14:17;;;;;;;;;;;;;;;;;;3568735;40;19926;-68
2021/05/07 04:16:43;;;;;;;;;;;;;;;;;;3569458;40;19925;-68
2021/05/07 04:19:09;;;;;;;;;;;;;;;;;;3570672;40;20258;-68
2021/05/07 04:21:35;;;;;;;;;;;;;;;;;;3552812;40;20307;-68
2021/05/07 04:24:01;;;;;;;;;;;;;;;;;;3570765;40;19936;-68
2021/05/07 04:26:27;;;;;;;;;;;;;;;;;;3570669;40;19936;-68
2021/05/07 04:28:53;;;;;;;;;;;;;;;;;;3558917;40;19937;-68
2021/05/07 04:31:19;;;;;;;;;;;;;;;;;;3568954;40;19929;-68
2021/05/07 04:33:44;;;;;;;;;;;;;;;;;;3570587;40;20186;-68
2021/05/07 04:36:10;;;;;;;;;;;;;;;;;;3570934;40;19940;-68
2021/05/07 04:38:37;;;;;;;;;;;;;;;;;;3570562;40;19949;-67
2021/05/07 04:41:03;;;;;;;;;;;;;;;;;;3559584;40;19937;-68
2021/05/07 04:43:29;;;;;;;;;;;;;;;;;;3560863;40;19929;-69
2021/05/07 04:45:54;;;;;;;;;;;;;;;;;;3561189;40;20182;-68
2021/05/07 04:48:20;;;;;;;;;;;;;;;;;;3570454;40;19940;-68
2021/05/07 04:50:46;;;;;;;;;;;;;;;;;;3569688;40;19928;-68
2021/05/07 04:53:12;;;;;;;;;;;;;;;;;;3570408;40;20014;-68
2021/05/07 04:55:38;;;;;;;;;;;;;;;;;;3570452;40;19941;-67
2021/05/07 04:58:04;;;;;;;;;;;;;;;;;;3570524;40;20359;-68
2021/05/07 05:00:30;;;;;;;;;;;;;;;;;;3573661;40;19929;-68
2021/05/07 05:02:56;;;;;;;;;;;;;;;;;;3570318;40;19936;-68
2021/05/07 05:05:23;;;;;;;;;;;;;;;;;;3571917;40;19944;-68
2021/05/07 05:07:48;;;;;;;;;;;;;;;;;;3571978;40;20194;-68
2021/05/07 05:10:14;;;;;;;;;;;;;;;;;;3560940;40;19929;-68
2021/05/07 05:12:40;;;;;;;;;;;;;;;;;;3561153;40;19969;-68
2021/05/07 05:15:06;;;;;;;;;;;;;;;;;;3560709;40;19940;-68
2021/05/07 05:17:32;;;;;;;;;;;;;;;;;;3569954;40;19933;-69
2021/05/07 05:19:58;;;;;;;;;;;;;;;;;;3576642;40;19931;-68
2021/05/07 05:22:24;;;;;;;;;;;;;;;;;;3560051;40;19933;-68
2021/05/07 05:24:50;;;;;;;;;;;;;;;;;;3558526;40;19934;-68
2021/05/07 05:27:16;;;;;;;;;;;;;;;;;;3572287;40;20210;-69
2021/05/07 05:29:42;;;;;;;;;;;;;;;;;;3552093;40;20008;-68
2021/05/07 05:32:08;;;;;;;;;;;;;;;;;;3547725;40;19936;-68
2021/05/07 05:34:34;;;;;;;;;;;;;;;;;;3560077;40;19938;-68
2021/05/07 05:37:00;;;;;;;;;;;;;;;;;;3560206;40;19941;-68
2021/05/07 05:39:26;;;;;;;;;;;;;;;;;;3561768;40;19974;-68
2021/05/07 05:41:52;;;;;;;;;;;;;;;;;;3566867;40;19929;-68
2021/05/07 05:44:17;;;;;;;;;;;;;;;;;;3553922;40;19930;-68
2021/05/07 05:46:43;;;;;;;;;;;;;;;;;;3561961;40;19939;-68
2021/05/07 05:49:09;;;;;;;;;;;;;;;;;;3559945;40;19945;-68
2021/05/07 05:51:35;;;;;;;;;;;;;;;;;;3559934;40;19941;-68
2021/05/07 05:54:01;;;;;;;;;;;;;;;;;;3550738;40;20011;-68
2021/05/07 05:56:27;;;;;;;;;;;;;;;;;;3560233;40;19970;-68
2021/05/07 05:58:53;;;;;;;;;;;;;;;;;;3560231;40;19936;-67
2021/05/07 06:01:19;;;;;;;;;;;;;;;;;;3560010;40;19930;-68
2021/05/07 06:03:45;;;;;;;;;;;;;;;;;;3559871;40;19926;-68
2021/05/07 06:06:14;;;;;;;;;;;;;;;;;;3559677;40;19941;-68
2021/05/07 06:08:40;;;;;;;;;;;;;;;;;;3559978;40;19945;-68
2021/05/07 06:11:05;;;;;;;;;;;;;;;;;;3559929;40;19951;-68
2021/05/07 06:13:31;;;;;;;;;;;;;;;;;;3560127;40;19948;-69
2021/05/07 06:15:57;;;;;;;;;;;;;;;;;;3559938;40;19929;-68
2021/05/07 06:18:23;;;;;;;;;;;;;;;;;;3560000;40;19937;-69
2021/05/07 06:20:49;;;;;;;;;;;;;;;;;;3560017;40;19929;-68
2021/05/07 06:23:15;;;;;;;;;;;;;;;;;;3559821;40;19984;-68
2021/05/07 06:25:41;;;;;;;;;;;;;;;;;;3561137;40;20172;-70
2021/05/07 06:28:08;;;;;;;;;;;12.20;99.90;;;;;;3561875;40;19925;-70
2021/05/07 06:30:34;;;;;;;;;;;;;;;;;;3568272;40;19948;-70
2021/05/07 06:33:00;;;;;;;;;;;;;;;;;;3558846;40;19930;-70
2021/05/07 06:35:26;;;;;;;;;;;;;;;;;;3568914;40;19935;-71
2021/05/07 06:37:52;;;;;;;;;;;;;;;;;;3569228;40;19937;-71
2021/05/07 06:40:17;;;;;;;;;;;;;;;;;;3567706;40;19942;-71
2021/05/07 06:42:46;;;;;;;;;;;;;;;;;;3563921;40;19933;-70
2021/05/07 06:45:12;;;;;;;;;;;;;;;;;;3577709;40;19968;-70
2021/05/07 06:47:38;;;;;;;;;;;;;;;;;;3570775;40;20293;-71
2021/05/07 06:50:04;;;;;;;;;;;;;;;;;;3563823;40;19933;-71
2021/05/07 06:52:31;;;;;;;;;;;;;;;;;;3571985;40;19941;-71
2021/05/07 06:54:57;;;;;;;;;;;;;;;;;;3562535;40;19963;-70
2021/05/07 06:57:22;;;;;;;;;;;;;;;;;;3566356;40;19934;-71
2021/05/07 06:59:49;;;;;;;;;;;;;;;;;;3570938;40;19933;-71
2021/05/07 07:02:15;;;;;;;;;;;;;;;;;;3564903;40;20190;-70
2021/05/07 07:04:41;;;;;;;;;;;;;;;;;;3570523;40;19957;-71
2021/05/07 07:07:06;;;;;;;;;;;;;;;;;;3572052;40;19929;-71
2021/05/07 07:09:32;;;;;;;;;;;;;;;;;;3571784;40;19958;-71
2021/05/07 07:11:58;;;;;;;;;;;;;;;;;;3572287;40;20294;-71
2021/05/07 07:14:24;;;;;;;;;;;;;;;;;;3568234;40;20198;-70
2021/05/07 07:16:50;;;;;;;;;;;;;;;;;;3572285;40;19933;-71
2021/05/07 07:19:16;;;;;;;;;;;;;;;;;;3571939;40;20198;-70
2021/05/07 07:21:42;;;;;;;;;;;;;;;;;;3569112;40;19932;-70
2021/05/07 07:24:08;;;;;;;;;;;;;;;;;;3574754;40;19933;-70
2021/05/07 07:26:34;;;;;;;;;;;;;;;;;;3562438;40;20029;-70
2021/05/07 07:29:00;;;;;;;;;;;;;;;;;;3568274;40;20221;-71
2021/05/07 07:31:26;;;;;;;;;;;;;;;;;;3578753;40;19933;-71
2021/05/07 07:33:52;;;;;;;;;;;16.20;99.90;;;;;;3571794;40;19940;-70
2021/05/07 07:36:18;;;;;;;;;;;;;;;;;;3556319;40;19944;-71
2021/05/07 07:38:44;;;;;;;;;;;;;;;;;;3567896;40;20290;-71
2021/05/07 07:41:10;;;;;;;;;;;;;;;;;;3561854;40;19942;-69
2021/05/07 07:43:36;;;;;;;;;;;16.50;99.90;;;;;;3552417;40;19960;-69
2021/05/07 07:46:02;;;;;;;;;;;;;;;;;;3551184;40;19989;-69
2021/05/07 07:48:28;;;;;;;;;;;;;;;;;;3563466;40;19977;-71
2021/05/07 07:50:53;;;;;;;;;;;;;;;;;;3566865;40;20172;-70
2021/05/07 07:53:20;;;;;;;;;;;;;;;;;;3559193;40;19936;-71
2021/05/07 07:55:46;;;;;;;;;;;;;;;;;;3561592;40;19937;-71
2021/05/07 07:58:12;;;;;;;;;;;;;;;;;;3558677;40;19930;-70
2021/05/07 08:00:37;;;;;;;;;;;;;;;;;;3554532;40;19940;-70
2021/05/07 08:03:03;;;;;;;;;;;;;;;;;;3563623;40;19969;-70
2021/05/07 08:05:29;;;;;;;;;;;;;;;;;;3561188;40;19941;-70
2021/05/07 08:07:55;;;;;;;;;;;;;;;;;;3561503;40;19937;-70
2021/05/07 08:10:21;;;;;;;;;;;;;;;;;;3554560;40;20271;-71
2021/05/07 08:12:47;;;;;;;;;;;;;;;;;;3561258;40;19930;-70
2021/05/07 08:15:13;;;;;;;;;;;;;;;;;;3560958;40;20095;-71
2021/05/07 08:17:39;;;;;;;;;;;;;;;;;;3561210;40;19973;-70
2021/05/07 08:20:05;;;;;;;;;;;;;;;;;;3561529;40;20191;-70
2021/05/07 08:22:31;;;;;;;;;;;;;;;;;;3560321;40;20278;-70
2021/05/07 08:24:58;;;;;;;;;;;17.80;99.90;;;;;;3552090;40;19933;-71
2021/05/07 08:27:24;;;;;;;;;;;17.90;99.10;;;;;;3557698;40;19968;-70
2021/05/07 08:29:50;;;;;;;;;;;17.70;98.90;;;;;;3548530;40;19973;-70
2021/05/07 08:32:16;;;;;;;;;;;17.70;98.70;;;;;;3560963;40;19980;-70
2021/05/07 08:34:44;;;;;;;;;;;17.90;99.90;;;;;;3543534;40;19940;-70
2021/05/07 08:37:10;;;;;;;;;;;;;;;;;;3551751;40;19941;-71
2021/05/07 08:39:36;;;;;;;;;;;;;;;;;;3542287;40;19950;-70
2021/05/07 08:42:02;;;;;;;;;;;;;;;;;;3539221;40;20018;-70
2021/05/07 08:44:28;;;;;;;;;;;;;;;;;;3535735;40;19937;-70
2021/05/07 08:46:54;;;;;;;;;;;;;;;;;;3541869;40;19930;-70
2021/05/07 08:49:19;;;;;;;;;;;;;;;;;;3540298;40;19934;-70
2021/05/07 08:51:45;;;;;;;;;;;;;;;;;;3534254;40;19966;-70
2021/05/07 08:54:11;;;;;;;;;;;;;;;;;;3542437;40;20273;-70
2021/05/07 08:56:37;;;;;;;;;;;;;;;;;;3539379;40;19939;-69
2021/05/07 08:59:03;;;;;;;;;;;;;;;;;;3539319;40;20264;-71
2021/05/07 09:01:29;;;;;;;;;;;;;;;;;;3539576;40;19934;-70
2021/05/07 09:03:56;;;;;;;;;;;18.10;99.20;;;;;;3539188;40;19926;-69
2021/05/07 09:06:22;;;;;;;;;;;;;;;;;;3529547;40;19942;-70
2021/05/07 09:08:48;;;;;;;;;;;;;;;;;;3537805;40;20234;-70
2021/05/07 09:11:14;;;;;;;;;;;;;;;;;;3548294;40;19937;-70
2021/05/07 09:13:40;;;;;;;;;;;;;;;;;;3561289;40;19941;-69
2021/05/07 09:16:06;;;;;;;;;;;;;;;;;;3560221;40;19937;-70
2021/05/07 09:18:31;;;;;;;;;;;;;;;;;;3560450;40;19929;-70
2021/05/07 09:21:00;;;;;;;;;;;18.80;99.20;;;;;;3560127;40;19929;-70
2021/05/07 09:23:25;;;;;;;;;;;19.10;98.10;;;;;;3560465;40;19992;-70
2021/05/07 09:25:58;;;;;;;;;;;19.00;97.90;;;;;;3550836;40;19933;-70
2021/05/07 09:28:24;;;;;;;;;;;19.20;98.70;;;;;;3548256;40;19940;-71
2021/05/07 09:30:49;;;;;;;;;;;;;;;;;;3560495;40;19933;-70
2021/05/07 09:33:16;;;;;;;;;;;19.70;97.00;;;;;;3562643;40;20191;-70
2021/05/07 09:35:42;;;;;;;;;;;19.60;97.60;;;;;;3566424;40;19933;-70
2021/05/07 09:38:09;;;;;;;;;;;19.50;96.90;;;;;;3562044;40;20228;-73
2021/05/07 09:40:35;;;;;;;;;;;;;;;;;;3562880;40;19953;-70
2021/05/07 09:43:02;;;;;;;;;;;;;;;;;;3555164;40;19988;-71
2021/05/07 09:45:27;;;;;;;;;;;;;;;;;;3551445;40;19933;-71
2021/05/07 09:47:54;;;;;;;;;;;;;;;;;;3558944;40;20047;-70
2021/05/07 09:50:20;;;;;;;;;;;;;;;;;;3550854;40;19933;-69
2021/05/07 09:52:50;;;;;;;;;;;;;;;;;;3558559;40;22212;-70
2021/05/07 09:55:16;;;;;;;;;;;;;;;;;;3558339;40;19936;-70
2021/05/07 09:57:43;;;;;;;;;;;19.70;96.70;;;;;;3556686;40;19956;-70
2021/05/07 10:00:09;;;;;;;;;;;;;;;;;;3559017;40;20381;-70
2021/05/07 10:02:35;;;;;;;;;;;;;;;;;;3561161;40;19945;-70
2021/05/07 10:05:01;;;;;;;;;;;;;;;;;;3563461;40;19926;-69
2021/05/07 10:07:28;;;;;;;;;;;;;;;;;;3560181;40;20010;-70
2021/05/07 10:09:54;;;;;;;;;;;;;;;;;;3556356;40;20011;-70
2021/05/07 10:12:19;;;;;;;;;;;;;;;;;;3563759;40;19929;-71
2021/05/07 10:14:45;;;;;;;;;;;;;;;;;;3563068;40;20279;-70
2021/05/07 10:17:11;;;;;;;;;;;;;;;;;;3560304;40;19937;-70
2021/05/07 10:19:37;;;;;;;;;;;;;;;;;;3554391;40;19938;-70
2021/05/07 10:22:03;;;;;;;;;;;;;;;;;;3549533;40;19930;-70
2021/05/07 10:24:29;;;;;;;;;;;;;;;;;;3559779;40;20198;-70
2021/05/07 10:26:56;;;;;;;;;;;;;;;;;;3552863;40;19937;-70
2021/05/07 10:29:22;;;;;;;;;;;;;;;;;;3555902;40;20013;-70
2021/05/07 10:31:48;;;;;;;;;;;;;;;;;;3558495;40;20286;-70
2021/05/07 10:34:14;;;;;;;;;;;;;;;;;;3548964;40;19938;-69
2021/05/07 10:36:40;;;;;;;;;;;;;;;;;;3559242;40;20179;-69
2021/05/07 10:39:06;;;;;;;;;;;;;;;;;;3550362;40;19933;-70
2021/05/07 10:41:32;;;;;;;;;;;;;;;;;;3555180;40;20279;-69
2021/05/07 10:43:58;;;;;;;;;;;;;;;;;;3569546;40;20207;-69
2021/05/07 10:46:23;;;;;;;;;;;;;;;;;;3568829;40;19960;-70
2021/05/07 10:48:49;;;;;;;;;;;;;;;;;;3575049;40;19929;-70
2021/05/07 10:51:15;;;;;;;;;;;;;;;;;;3553513;40;19929;-70
2021/05/07 10:53:41;;;;;;;;;;;;;;;;;;3565545;40;20015;-71
2021/05/07 10:56:07;;;;;;;;;;;;;;;;;;3571952;40;20015;-70
2021/05/07 10:58:33;;;;;;;;;;;;;;;;;;3568262;40;19937;-70
2021/05/07 11:00:59;;;;;;;;;;;;;;;;;;3568239;40;19929;-70
2021/05/07 11:03:25;;;;;;;;;;;;;;;;;;3567631;40;19937;-70
2021/05/07 11:05:51;;;;;;;;;;;;;;;;;;3579008;40;20061;-69
2021/05/07 11:08:17;;;;;;;;;;;;;;;;;;3569631;40;19988;-70
2021/05/07 11:10:43;;;;;;;;;;;;;;;;;;3571404;40;19929;-70
2021/05/07 11:13:09;;;;;;;;;;;;;;;;;;3569179;40;19962;-70
2021/05/07 11:15:35;;;;;;;;;;;;;;;;;;3576389;40;19929;-70
2021/05/07 11:18:02;;;;;;;;;;;;;;;;;;3569611;40;19930;-70
2021/05/07 11:20:28;;;;;;;;;;;;;;;;;;3569519;40;20274;-70
2021/05/07 11:22:54;;;;;;;;;;;;;;;;;;3569492;40;19936;-70
2021/05/07 11:25:20;;;;;;;;;;;;;;;;;;3564460;40;19929;-70
2021/05/07 11:27:46;;;;;;;;;;;23.30;78.40;;;;;;3562049;40;20198;-70
2021/05/07 11:30:13;;;;;;;;;;;24.00;83.30;;;;;;3569371;40;19949;-70
2021/05/07 11:32:39;;;;;;;;;;;23.90;82.30;;;;;;3551592;40;19940;-70
2021/05/07 11:35:05;;;;;;;;;;;;;;;;;;3569188;40;19933;-69
2021/05/07 11:37:31;;;;;;;;;;;;;;;;;;3569340;40;19929;-70
2021/05/07 11:39:57;;;;;;;;;;;;;;;;;;3572293;40;19943;-69
2021/05/07 11:42:23;;;;;;;;;;;;;;;;;;3564545;40;19930;-70
2021/05/07 11:44:49;;;;;;;;;;;;;;;;;;3560840;40;19936;-70
2021/05/07 11:47:14;;;;;;;;;;;;;;;;;;3559749;40;19929;-70
2021/05/07 11:49:40;;;;;;;;;;;;;;;;;;3551552;40;19937;-70
2021/05/07 11:52:06;;;;;;;;;;;;;;;;;;3560691;40;20020;-70
2021/05/07 11:54:32;;;;;;;;;;;;;;;;;;3563707;40;20023;-70
2021/05/07 11:56:58;;;;;;;;;;;;;;;;;;3560674;40;20303;-70
2021/05/07 11:59:24;;;;;;;;;;;;;;;;;;3551703;40;20028;-70
2021/05/07 12:01:50;;;;;;;;;;;;;;;;;;3563894;40;19930;-69
2021/05/07 12:04:16;;;;;;;;;;;;;;;;;;3559620;40;19926;-69
2021/05/07 12:06:42;;;;;;;;;;;;;;;;;;3560564;40;19929;-70
2021/05/07 12:09:08;;;;;;;;;;;;;;;;;;3551374;40;20305;-70
2021/05/07 12:11:34;;;;;;;;;;;;;;;;;;3563617;40;20011;-69
2021/05/07 12:14:00;;;;;;;;;;;;;;;;;;3562813;40;20190;-70
2021/05/07 12:16:27;;;;;;;;;;;;;;;;;;3561015;40;19933;-69
2021/05/07 12:18:54;;;;;;;;;;;;;;;;;;3558556;40;19965;-70
2021/05/07 12:21:20;;;;;;;;;;;;;;;;;;3564705;40;20027;-70
2021/05/07 12:23:46;;;;;;;;;;;;;;;;;;3561650;40;19941;-70
2021/05/07 12:26:12;;;;;;;;;;;;;;;;;;3562351;40;19942;-70
2021/05/07 12:28:38;;;;;;;;;;;;;;;;;;3551215;40;19935;-69
2021/05/07 12:31:04;;;;;;;;;;;;;;;;;;3554154;40;19952;-70
2021/05/07 12:33:30;;;;;;;;;;;;;;;;;;3560707;40;20015;-70
2021/05/07 12:35:56;;;;;;;;;;;;;;;;;;3556187;40;19948;-69
2021/05/07 12:38:29;;;;;;;;;;;;;;;;;;3553398;40;19929;-69
2021/05/07 12:40:55;;;;;;;;;;;;;;;;;;3561408;40;19938;-69
2021/05/07 12:43:21;;;;;;;;;;;;;;;;;;3566662;40;19936;-70
2021/05/07 12:45:48;;;;;;;2.33;0.20;;;;;;;;;;3569276;40;20266;-70
2021/05/07 12:48:15;;;;;;;2.35;0.50;;;;;;;;;;3560541;40;20428;-71
2021/05/07 12:50:41;;;;;;;1.60;0.30;;;;;;;;;;3567451;40;20372;-70
2021/05/07 12:53:10;;;;;;;4.65;0.30;;;;;;;;;;3573343;40;20413;-70
2021/05/07 12:55:37;;;;;;;1.33;0.10;;;;;;;;;;3577286;40;20363;-70
2021/05/07 12:58:04;;;;;;;2.20;0.20;;;;;;;;;;3572373;40;20845;-70
2021/05/07 13:00:30;;;;;;;3.00;0.10;;;;;;;;;;3571199;40;20441;-70
2021/05/07 13:02:57;;;;;;;5.70;0.30;;;;;;;;;;3570861;40;20423;-69
2021/05/07 13:05:23;;;;;;;3.65;0.10;;;;;;;;;;3566981;40;20441;-70
2021/05/07 13:07:50;;;;;;;2.42;0.10;;;;;;;;;;3554902;40;20397;-71
2021/05/07 13:10:17;;;;;;;2.08;0.10;;;;;;;;;;3574371;40;20631;-71
2021/05/07 13:12:43;;;;;;;1.33;0.20;;;;;;;;;;3565839;40;20388;-71
2021/05/07 13:15:09;;;;;;;0.70;0.00;;;;;;;;;;3567018;40;20366;-71
2021/05/07 13:17:36;;;;;;;1.08;0.00;;;;;;;;;;3563342;40;20396;-71
2021/05/07 13:20:03;;;;;;;0.50;0.00;;;;;;;;;;3561198;40;20371;-71
2021/05/07 13:22:29;;;;;;;1.10;0.00;;;;;;;;;;3568068;40;20382;-70
2021/05/07 13:24:56;;;;;;;2.08;0.10;;;;;;;;;;3566838;40;20429;-69
2021/05/07 13:27:22;;;;;;;3.10;0.10;;;;;;;;;;3567279;40;20370;-70
2021/05/07 13:29:48;;;;;;;1.00;0.00;;;;;;;;;;3567357;40;20664;-70
2021/05/07 13:32:19;;;;;;;0.70;0.00;;;;;;;;;;3567675;40;20767;-70
2021/05/07 13:34:49;;;;;;;1.08;0.10;;;;;;;;;;3565939;40;20368;-70
2021/05/07 13:37:16;;;;;;;1.57;0.10;;;;;;;;;;3555501;40;20410;-70
2021/05/07 13:39:42;;;;;;;0.98;0.00;;;;;;;;;;3567453;40;20378;-70
2021/05/07 13:42:10;;;;;;;1.08;0.10;;;;;;;;;;3567226;40;20667;-70
2021/05/07 13:44:36;;;;;;;4.07;0.10;;;;;;;;;;3570853;40;20380;-70
2021/05/07 13:47:03;;;;;;;0.60;0.10;;;;;;;;;;3567380;40;20369;-70
2021/05/07 13:49:29;;;;;;;1.30;0.10;;;;;;;;;;3557973;40;20762;-71
2021/05/07 13:51:55;;;;;;;1.10;0.00;;;;;;;;;;3564844;40;20362;-70
2021/05/07 13:54:23;;;;;;;2.55;0.10;;;;;;;;;;3558187;40;20451;-70
2021/05/07 13:56:49;;;;;;;0.80;0.00;;;;;;;;;;3567469;40;20521;-70
2021/05/07 13:59:16;;;;;;;0.80;0.00;;;;;;;;;;3567905;40;20405;-72
2021/05/07 14:01:42;;;;;;;1.20;0.00;;;25.80;93.20;;;;;;3567498;40;20381;-71
2021/05/07 14:04:08;;;;;;;0.20;0.00;;;26.70;30.70;;;;;;3567643;40;20693;-71
2021/05/07 14:06:35;;;;;;;0.87;0.00;;;26.60;31.00;;;;;;3558268;40;20402;-71
2021/05/07 14:09:01;;;;;;;0.85;0.00;;;26.50;30.00;;;;;;3567629;40;20382;-71
2021/05/07 14:11:28;;;;;;;2.00;0.00;;;26.50;30.20;;;;;;3567739;40;20393;-72
2021/05/07 14:13:54;;;;;;;1.40;0.00;;;26.50;30.60;;;;;;3574168;40;20762;-70
2021/05/07 14:16:22;;;;;;;0.63;0.00;;;26.40;29.60;;;;;;3573963;40;20420;-71
2021/05/07 14:18:48;;;;;;;0.40;0.00;;;26.10;31.80;;;;;;3568070;40;20874;-71
2021/05/07 14:21:14;;;;;;;1.20;0.00;;;26.30;32.30;;;;;;3573537;40;20429;-71
2021/05/07 14:23:41;;;;;;;1.30;0.00;;;26.40;30.90;;;;;;3567868;40;20413;-71
2021/05/07 14:26:07;;;;;;;1.33;0.00;;;26.20;31.40;;;;;;3560912;40;20415;-71
2021/05/07 14:28:34;;;;;;;2.70;0.25;;;;;;;;;;3574970;40;20404;-72
2021/05/07 14:31:00;;;;;;;0.90;0.00;;;;;;;;;;3565347;40;20435;-71
2021/05/07 14:33:26;;;;;;;1.85;0.00;;;;;;;;;;3575339;40;20370;-73
2021/05/07 14:35:53;;;;;;;0.25;0.10;;;;;;;;;;3578402;40;20369;-71
2021/05/07 14:38:19;;;;;;;0.17;0.00;;;;;;;;;;3567479;40;20807;-71
2021/05/07 14:40:46;;;;;;;1.65;0.10;;;;;;;;;;3579360;40;20352;-72
2021/05/07 14:43:12;;;;;;;0.40;0.00;;;;;;;;;;3569947;40;20372;-71
2021/05/07 14:45:39;;;;;;;1.02;0.00;;;;;;;;;;3578882;40;20379;-70
2021/05/07 14:48:05;;;;;;;0.70;0.00;;;;;;;;;;3578902;40;20433;-71
2021/05/07 14:50:32;;;;;;;2.53;0.08;;;;;;;;;;3566027;40;20397;-71
2021/05/07 14:52:58;;;;;;;1.00;0.00;;;;;;;;;;3562228;40;20448;-71
2021/05/07 14:55:24;;;;;;;2.35;0.08;;;;;;;;;;3567219;40;20373;-71
2021/05/07 14:57:50;;;;;;;0.68;0.00;;;;;;;;;;3567319;40;20464;-72
2021/05/07 15:00:17;;;;;;;1.90;0.00;;;;;;;;;;3567837;40;20371;-70
2021/05/07 15:02:44;;;;;;;0.40;0.00;;;;;;;;;;3568235;40;20655;-71
2021/05/07 15:05:10;;;;;;;0.80;0.00;;;;;;;;;;3562680;40;20428;-71
2021/05/07 15:07:40;;;;;;;0.52;0.00;;;;;;;;;;3567548;40;20402;-71
2021/05/07 15:10:06;;;;;;;0.70;0.00;;;;;;;;;;3577957;40;20404;-71
2021/05/07 15:12:32;;;;;;;1.50;0.00;;;;;;;;;;3566082;40;20395;-72
2021/05/07 15:14:59;;;;;;;3.08;0.00;;;;;;;;;;3562009;40;20415;-71
2021/05/07 15:17:25;;;;;;;0.95;0.00;;;;;;;;;;3583856;40;20748;-71
2021/05/07 15:19:57;;;;;;;1.02;0.00;;;;;;;;;;3590077;40;20380;-71
2021/05/07 15:22:24;;;;;;;2.45;0.20;;;;;;;;;;3542203;40;20413;-72
2021/05/07 15:24:50;;;;;;;1.43;0.13;;;;;;;;;;3538809;40;20406;-72
2021/05/07 15:27:16;;;;;;;3.55;0.10;;;;;;;;;;3548034;40;20377;-71
2021/05/07 15:29:42;;;;;;;1.00;0.00;;;;;;;;;;3548243;40;20370;-72
2021/05/07 15:32:08;;;;;;;0.75;0.00;;;;;;;;;;3539658;40;20695;-72
2021/05/07 15:34:35;;;;;;;1.52;0.00;;;;;;;;;;3540651;40;20643;-72
2021/05/07 15:37:02;;;;;;;2.40;0.00;;;;;;;;;;3548989;40;20468;-71
2021/05/07 15:39:28;;;;;;;1.00;0.08;;;;;;;;;;3548872;40;20812;-73
2021/05/07 15:41:57;;;;;;;1.05;0.00;;;;;;;;;;3544688;40;20397;-71
2021/05/07 15:44:23;;;;;;;1.50;0.00;;;;;;;;;;3543772;40;20393;-72
2021/05/07 15:46:51;;;;;;;0.90;0.00;;;;;;;;;;3540867;40;20654;-72
2021/05/07 15:49:17;;;;;;;1.95;0.10;;;;;;;;;;3545554;40;20481;-71
2021/05/07 15:51:46;;;;;;;1.58;0.13;;;;;;;;;;3529047;40;20576;-72
2021/05/07 15:54:13;;;;;;;2.10;0.00;;;;;;;;;;3556781;40;20394;-71
2021/05/07 15:56:39;;;;;;;0.98;0.00;;;;;;;;;;3561535;40;20772;-71
2021/05/07 15:59:06;;;;;;;0.30;0.00;;;;;;;;;;3549889;40;20440;-71
2021/05/07 16:01:34;;;;;;;0.32;0.00;;;;;;;;;;3549977;40;20499;-71